createdAt,value
2023-01-04T00:02:27.585Z,0.45
2023-01-04T00:04:59.628Z,0.20
2023-01-04T00:07:32.598Z,0.35
2023-01-04T00:10:04.968Z,0.20
2023-01-04T00:12:37.466Z,0.25
2023-01-04T00:15:10.205Z,0.15
2023-01-04T00:17:42.327Z,0.30
2023-01-04T00:20:14.658Z,0.50
2023-01-04T00:22:46.904Z,0.28
2023-01-04T00:25:18.946Z,0.35
2023-01-04T00:27:52.739Z,0.23
2023-01-04T00:30:24.777Z,0.30
2023-01-04T00:32:58.145Z,0.20
2023-01-04T00:35:45.304Z,0.40
2023-01-04T00:38:04.035Z,0.47
2023-01-04T00:40:36.198Z,0.93
2023-01-04T00:43:08.150Z,1.00
2023-01-04T00:45:40.319Z,0.90
2023-01-04T00:48:12.708Z,1.20
2023-01-04T00:50:46.399Z,1.50
2023-01-04T00:53:19.197Z,1.60
2023-01-04T00:55:51.401Z,1.05
2023-01-04T00:58:23.427Z,1.60
2023-01-04T01:00:55.495Z,1.40
2023-01-04T01:03:30.073Z,1.12
2023-01-04T01:06:05.967Z,1.77
2023-01-04T01:08:38.212Z,1.75
2023-01-04T01:11:12.220Z,1.80
2023-01-04T01:13:44.412Z,1.80
2023-01-04T01:16:37.857Z,1.47
2023-01-04T01:18:54.489Z,1.35
2023-01-04T01:21:29.282Z,1.20
2023-01-04T01:24:01.190Z,1.90
2023-01-04T01:26:34.423Z,1.45
2023-01-04T01:29:08.074Z,1.60
2023-01-04T01:31:41.338Z,1.92
2023-01-04T01:34:13.352Z,1.30
2023-01-04T01:36:45.784Z,1.77
2023-01-04T01:39:18.060Z,1.50
2023-01-04T01:41:50.208Z,1.60
2023-01-04T01:44:47.232Z,1.85
2023-01-04T01:47:28.034Z,1.62
2023-01-04T01:50:01.117Z,1.82
2023-01-04T01:52:36.044Z,1.85
2023-01-04T01:55:10.900Z,1.47
2023-01-04T01:57:44.026Z,0.98
2023-01-04T02:00:17.044Z,0.98
2023-01-04T02:03:12.081Z,1.17
2023-01-04T02:05:45.653Z,1.55
2023-01-04T02:08:18.665Z,1.62
2023-01-04T02:10:51.139Z,1.32
2023-01-04T02:13:26.072Z,1.42
2023-01-04T02:16:07.072Z,1.57
2023-01-04T02:18:47.613Z,2.00
2023-01-04T02:21:22.520Z,1.55
2023-01-04T02:24:16.795Z,1.22
2023-01-04T02:27:03.387Z,1.72
2023-01-04T02:29:38.302Z,2.17
2023-01-04T02:32:16.016Z,1.87
2023-01-04T02:34:56.452Z,1.72
2023-01-04T02:37:51.632Z,1.65
2023-01-04T02:40:48.892Z,1.25
2023-01-04T02:43:55.988Z,2.40
2023-01-04T02:46:33.683Z,1.77
2023-01-04T02:49:23.391Z,1.85
2023-01-04T02:51:55.689Z,1.80
2023-01-04T02:54:32.328Z,3.12
2023-01-04T02:57:25.445Z,2.60
2023-01-04T03:00:15.053Z,2.00
2023-01-04T03:03:39.567Z,1.75
2023-01-04T03:06:20.151Z,1.72
2023-01-04T03:09:00.890Z,2.30
2023-01-04T03:12:08.092Z,1.90
2023-01-04T03:14:43.042Z,2.10
2023-01-04T03:17:18.301Z,1.98
2023-01-04T03:19:52.146Z,2.00
2023-01-04T03:22:47.548Z,2.42
2023-01-04T03:25:40.075Z,1.20
2023-01-04T03:28:32.629Z,1.55
2023-01-04T03:31:31.024Z,1.55
2023-01-04T03:34:20.966Z,1.02
2023-01-04T03:36:58.664Z,1.22
2023-01-04T03:40:12.217Z,1.47
2023-01-04T03:43:16.238Z,1.47
2023-01-04T03:46:09.005Z,1.50
2023-01-04T03:48:55.695Z,1.40
2023-01-04T03:51:33.291Z,1.37
2023-01-04T03:54:11.976Z,1.70
2023-01-04T03:56:46.257Z,1.62
2023-01-04T03:59:18.187Z,1.98
2023-01-04T04:01:50.629Z,1.45
2023-01-04T04:04:40.294Z,1.98
2023-01-04T04:07:30.549Z,1.70
2023-01-04T04:10:02.679Z,1.72
2023-01-04T04:12:34.617Z,1.80
2023-01-04T04:15:07.481Z,1.60
2023-01-04T04:17:39.535Z,1.35
2023-01-04T04:20:13.352Z,1.67
2023-01-04T04:22:45.581Z,1.72
2023-01-04T04:25:17.613Z,1.02
2023-01-04T04:27:49.820Z,1.47
2023-01-04T04:30:22.389Z,1.95
2023-01-04T04:32:54.556Z,1.47
2023-01-04T04:35:26.577Z,1.98
2023-01-04T04:37:58.740Z,2.12
2023-01-04T04:40:48.470Z,1.10
2023-01-04T04:43:20.556Z,1.20
2023-01-04T04:45:52.570Z,1.30
2023-01-04T04:48:24.551Z,1.10
2023-01-04T04:50:56.551Z,1.45
2023-01-04T04:53:28.522Z,1.50
2023-01-04T04:56:00.596Z,1.47
2023-01-04T04:58:32.593Z,1.47
2023-01-04T05:01:05.261Z,1.47
2023-01-04T05:03:37.935Z,1.25
2023-01-04T05:06:10.160Z,1.40
2023-01-04T05:08:42.255Z,1.45
2023-01-04T05:11:14.670Z,0.95
2023-01-04T05:13:46.649Z,1.45
2023-01-04T05:16:18.730Z,0.98
2023-01-04T05:18:50.660Z,1.22
2023-01-04T05:21:22.662Z,1.05
2023-01-04T05:23:54.673Z,1.20
2023-01-04T05:26:26.665Z,1.30
2023-01-04T05:28:58.697Z,0.68
2023-01-04T05:31:31.509Z,1.10
2023-01-04T05:34:03.872Z,0.75
2023-01-04T05:36:36.084Z,1.60
2023-01-04T05:39:08.424Z,1.25
2023-01-04T05:41:57.957Z,1.05
2023-01-04T05:44:29.873Z,1.05
2023-01-04T05:47:01.868Z,1.20
2023-01-04T05:49:33.849Z,0.80
2023-01-04T05:52:06.032Z,1.02
2023-01-04T05:54:37.943Z,1.50
2023-01-04T05:57:10.498Z,1.10
2023-01-04T05:59:42.786Z,1.40
2023-01-04T06:02:20.201Z,0.90
2023-01-04T06:04:58.524Z,1.47
2023-01-04T06:07:26.969Z,3.37
2023-01-04T06:09:59.845Z,1.27
2023-01-04T06:12:32.538Z,1.22
2023-01-04T06:15:05.058Z,1.30
2023-01-04T06:17:38.253Z,1.30
2023-01-04T06:20:11.522Z,1.13
2023-01-04T06:22:43.844Z,1.30
2023-01-04T06:25:16.068Z,1.12
2023-01-04T06:27:48.065Z,1.40
2023-01-04T06:30:20.187Z,1.20
2023-01-04T06:32:52.714Z,1.15
2023-01-04T06:35:24.902Z,1.90
2023-01-04T06:37:57.131Z,1.60
2023-01-04T06:40:29.153Z,1.22
2023-01-04T06:43:01.261Z,1.27
2023-01-04T06:45:33.213Z,1.20
2023-01-04T06:48:09.103Z,1.72
2023-01-04T06:50:39.192Z,2.12
2023-01-04T06:53:11.394Z,1.62
2023-01-04T06:55:45.309Z,1.37
2023-01-04T06:58:17.319Z,1.75
2023-01-04T07:00:50.051Z,2.12
2023-01-04T07:03:22.825Z,1.05
2023-01-04T07:05:54.897Z,1.20
2023-01-04T07:08:27.235Z,1.27
2023-01-04T07:10:59.365Z,1.02
2023-01-04T07:13:31.431Z,0.90
2023-01-04T07:16:03.565Z,1.65
2023-01-04T07:18:35.613Z,1.30
2023-01-04T07:21:07.840Z,1.10
2023-01-04T07:23:39.842Z,1.45
2023-01-04T07:26:11.825Z,1.45
2023-01-04T07:29:01.616Z,1.07
2023-01-04T07:31:34.184Z,1.20
2023-01-04T07:34:06.314Z,1.85
2023-01-04T07:36:38.324Z,0.78
2023-01-04T07:39:12.751Z,1.20
2023-01-04T07:41:45.639Z,1.50
2023-01-04T07:44:18.778Z,1.00
2023-01-04T07:46:51.320Z,0.90
2023-01-04T07:49:23.399Z,1.47
2023-01-04T07:51:55.309Z,1.40
2023-01-04T07:54:27.463Z,1.15
2023-01-04T07:56:59.989Z,0.90
2023-01-04T07:59:32.342Z,1.45
2023-01-04T08:02:04.715Z,1.30
2023-01-04T08:04:37.479Z,1.00
2023-01-04T08:07:09.948Z,1.50
2023-01-04T08:09:42.128Z,1.57
2023-01-04T08:12:14.097Z,1.12
2023-01-04T08:14:46.285Z,1.87
2023-01-04T08:17:18.755Z,1.90
2023-01-04T08:19:50.734Z,1.47
2023-01-04T08:22:22.730Z,2.10
2023-01-04T08:24:54.930Z,1.40
2023-01-04T08:27:27.686Z,2.52
2023-01-04T08:30:00.156Z,2.65
2023-01-04T08:32:33.323Z,3.37
2023-01-04T08:35:06.061Z,3.10
2023-01-04T08:37:38.044Z,5.95
2023-01-04T08:40:11.219Z,3.37
2023-01-04T08:42:44.405Z,3.20
2023-01-04T08:47:49.038Z,3.70
2023-01-04T08:50:21.903Z,2.90
2023-01-04T08:52:54.030Z,3.58
2023-01-04T08:55:26.047Z,4.53
2023-01-04T08:57:58.207Z,2.37
2023-01-04T09:00:30.486Z,3.85
2023-01-04T09:03:03.278Z,2.85
2023-01-04T09:05:35.325Z,2.72
2023-01-04T09:08:07.601Z,4.15
2023-01-04T09:10:40.825Z,4.97
2023-01-04T09:13:12.899Z,4.80
2023-01-04T09:15:45.668Z,3.65
2023-01-04T09:18:33.570Z,2.92
2023-01-04T09:20:51.530Z,3.52
2023-01-04T09:23:24.223Z,4.70
2023-01-04T09:25:56.781Z,3.02
2023-01-04T09:28:28.878Z,5.20
2023-01-04T09:31:02.857Z,4.65
2023-01-04T09:34:04.007Z,4.95
2023-01-04T09:36:10.178Z,3.05
2023-01-04T09:38:42.804Z,3.75
2023-01-04T09:41:23.510Z,5.00
2023-01-04T09:44:04.809Z,4.67
2023-01-04T09:46:45.629Z,4.95
2023-01-04T09:49:35.773Z,4.75
2023-01-04T09:52:23.191Z,5.05
2023-01-04T09:55:38.138Z,4.25
2023-01-04T09:57:46.956Z,3.50
2023-01-04T10:00:24.274Z,4.67
2023-01-04T10:03:08.344Z,3.42
2023-01-04T10:05:42.562Z,3.42
2023-01-04T10:11:05.075Z,2.77
2023-01-04T10:13:55.126Z,3.08
2023-01-04T10:17:12.605Z,3.02
2023-01-04T10:22:52.692Z,2.75
2023-01-04T10:25:33.429Z,2.90
2023-01-04T10:28:17.146Z,3.47
2023-01-04T10:31:39.514Z,2.17
2023-01-04T10:33:57.448Z,3.10
2023-01-04T10:36:34.657Z,2.35
2023-01-04T10:39:10.242Z,2.75
2023-01-04T10:41:45.074Z,2.55
2023-01-04T10:44:41.873Z,3.10
2023-01-04T10:47:19.624Z,4.42
2023-01-04T10:50:00.868Z,3.40
2023-01-04T10:52:36.165Z,4.10
2023-01-04T10:55:20.158Z,4.25
2023-01-04T10:57:55.175Z,4.12
2023-01-04T11:00:33.217Z,4.33
2023-01-04T11:03:32.362Z,4.20
2023-01-04T11:06:10.040Z,4.60
2023-01-04T11:08:54.392Z,4.92
2023-01-04T11:11:35.353Z,4.60
2023-01-04T11:14:07.811Z,4.10
2023-01-04T11:16:43.152Z,3.02
2023-01-04T11:19:15.994Z,3.27
2023-01-04T11:22:16.384Z,2.70
2023-01-04T11:25:33.163Z,3.12
2023-01-04T11:27:30.840Z,3.60
2023-01-04T11:30:08.962Z,2.00
2023-01-04T11:32:44.411Z,2.47
2023-01-04T11:35:16.423Z,1.10
2023-01-04T11:37:48.537Z,2.58
2023-01-04T11:40:23.894Z,1.50
2023-01-04T11:43:13.779Z,1.57
2023-01-04T11:46:03.987Z,0.85
2023-01-04T11:48:45.100Z,1.40
2023-01-04T11:51:31.971Z,1.77
2023-01-04T11:54:15.884Z,2.72
2023-01-04T11:57:11.852Z,1.60
2023-01-04T11:59:40.920Z,1.80
2023-01-04T12:05:00.844Z,1.92
2023-01-04T12:07:36.945Z,2.12
2023-01-04T12:10:25.208Z,1.20
2023-01-04T12:12:59.384Z,1.47
2023-01-04T12:18:09.382Z,1.40
2023-01-04T12:20:41.646Z,1.50
2023-01-04T12:23:14.800Z,1.50
2023-01-04T12:25:53.039Z,1.20
2023-01-04T12:28:36.770Z,1.70
2023-01-04T12:31:23.959Z,1.20
2023-01-04T12:33:58.265Z,1.30
2023-01-04T12:36:43.279Z,1.50
2023-01-04T12:39:18.012Z,1.67
2023-01-04T12:42:01.949Z,1.80
2023-01-04T12:44:50.384Z,6.05
2023-01-04T12:47:48.731Z,2.40
2023-01-04T12:50:31.317Z,0.90
2023-01-04T12:55:44.344Z,1.70
2023-01-04T12:59:14.916Z,1.50
2023-01-04T13:01:11.562Z,1.80
2023-01-04T13:03:46.491Z,1.17
2023-01-04T13:06:21.406Z,1.85
2023-01-04T13:08:54.243Z,1.05
2023-01-04T13:11:52.209Z,1.60
2023-01-04T13:14:33.092Z,1.75
2023-01-04T13:17:20.567Z,1.05
2023-01-04T13:19:53.092Z,1.32
2023-01-04T13:22:33.761Z,1.50
2023-01-04T13:25:09.084Z,1.42
2023-01-04T13:27:42.795Z,1.20
2023-01-04T13:30:31.892Z,1.30
2023-01-04T13:33:26.704Z,1.10
2023-01-04T13:36:07.046Z,1.20
2023-01-04T13:38:43.406Z,1.32
2023-01-04T13:41:21.540Z,1.15
2023-01-04T13:43:59.306Z,1.70
2023-01-04T13:46:32.467Z,1.62
2023-01-04T13:49:05.304Z,2.87
2023-01-04T13:51:38.418Z,1.20
2023-01-04T13:54:22.834Z,1.27
2023-01-04T13:59:27.959Z,1.40
2023-01-04T14:02:00.080Z,1.42
2023-01-04T14:04:34.211Z,2.20
2023-01-04T14:09:53.886Z,0.95
2023-01-04T14:12:28.421Z,1.90
2023-01-04T14:15:26.192Z,2.00
2023-01-04T14:17:59.241Z,1.75
2023-01-04T14:20:34.254Z,2.30
2023-01-04T14:23:06.701Z,2.10
2023-01-04T14:25:43.463Z,2.12
2023-01-04T14:28:29.747Z,2.52
2023-01-04T14:31:06.517Z,2.30
2023-01-04T14:33:44.720Z,2.30
2023-01-04T14:36:32.566Z,2.60
2023-01-04T14:39:13.700Z,2.50
2023-01-04T14:41:55.186Z,2.20
2023-01-04T14:44:31.249Z,2.25
2023-01-04T14:47:07.931Z,1.15
2023-01-04T14:49:40.128Z,2.30
2023-01-04T14:52:15.621Z,2.37
2023-01-04T14:54:47.653Z,3.15
2023-01-04T14:57:21.423Z,2.60
2023-01-04T14:59:53.483Z,2.55
2023-01-04T15:02:27.375Z,2.67
2023-01-04T15:07:39.461Z,2.80
2023-01-04T15:10:26.575Z,2.60
2023-01-04T15:13:00.123Z,2.40
2023-01-04T15:15:34.368Z,2.20
2023-01-04T15:18:06.464Z,2.45
2023-01-04T15:20:40.624Z,2.05
2023-01-04T15:23:12.658Z,2.45
2023-01-04T15:25:44.955Z,2.75
2023-01-04T15:28:17.200Z,2.22
2023-01-04T15:30:49.236Z,2.30
2023-01-04T15:33:21.767Z,2.77
2023-01-04T15:36:05.581Z,1.85
2023-01-04T15:38:37.465Z,2.02
2023-01-04T15:41:13.871Z,2.25
2023-01-04T15:43:45.769Z,2.50
2023-01-04T15:46:17.964Z,2.90
2023-01-04T15:48:49.997Z,2.65
2023-01-04T15:51:22.201Z,2.50
2023-01-04T15:53:54.704Z,2.65
2023-01-04T15:56:27.018Z,2.83
2023-01-04T15:58:59.237Z,2.62
2023-01-04T16:01:31.613Z,2.35
2023-01-04T16:04:05.401Z,2.40
2023-01-04T16:06:37.321Z,3.33
2023-01-04T16:09:09.535Z,2.83
2023-01-04T16:12:02.423Z,2.52
2023-01-04T16:14:34.396Z,3.42
2023-01-04T16:17:06.728Z,2.42
2023-01-04T16:19:38.628Z,2.42
2023-01-04T16:22:11.214Z,2.33
2023-01-04T16:27:17.253Z,2.60
2023-01-04T16:29:53.475Z,2.70
2023-01-04T16:32:25.465Z,2.65
2023-01-04T16:34:57.407Z,2.77
2023-01-04T16:37:30.838Z,2.80
2023-01-04T16:40:07.844Z,2.65
2023-01-04T16:42:38.140Z,3.33
2023-01-04T16:45:11.040Z,2.90
2023-01-04T16:47:44.358Z,2.30
2023-01-04T16:50:16.801Z,3.40
2023-01-04T16:52:48.920Z,4.25
2023-01-04T16:55:23.983Z,2.90
2023-01-04T16:57:54.843Z,2.52
2023-01-04T17:00:27.231Z,3.15
2023-01-04T17:02:59.307Z,4.20
2023-01-04T17:05:31.460Z,3.12
2023-01-04T17:08:03.726Z,2.47
2023-01-04T17:10:37.558Z,2.98
2023-01-04T17:13:09.595Z,3.02
2023-01-04T17:15:43.376Z,5.22
2023-01-04T17:18:17.188Z,3.20
2023-01-04T17:20:52.151Z,3.37
2023-01-04T17:23:26.319Z,3.27
2023-01-04T17:26:03.938Z,3.00
2023-01-04T17:28:36.785Z,3.77
2023-01-04T17:31:11.323Z,4.40
2023-01-04T17:33:43.551Z,4.25
2023-01-04T17:36:17.845Z,4.92
2023-01-04T17:38:50.414Z,4.62
2023-01-04T17:41:24.796Z,5.30
2023-01-04T17:44:02.036Z,4.08
2023-01-04T17:46:37.207Z,4.45
2023-01-04T17:49:31.870Z,3.90
2023-01-04T17:51:46.441Z,3.90
2023-01-04T17:54:18.833Z,4.80
2023-01-04T17:56:50.841Z,3.85
2023-01-04T17:59:23.017Z,4.28
2023-01-04T18:01:55.176Z,4.85
2023-01-04T18:04:27.282Z,4.53
2023-01-04T18:06:59.652Z,5.67
2023-01-04T18:09:31.665Z,3.83
2023-01-04T18:12:03.930Z,4.92
2023-01-04T18:14:35.973Z,4.05
2023-01-04T18:17:08.175Z,5.78
2023-01-04T18:19:44.562Z,4.83
2023-01-04T18:22:14.148Z,3.77
2023-01-04T18:24:46.183Z,6.50
2023-01-04T18:27:26.442Z,5.17
2023-01-04T18:29:52.435Z,3.47
2023-01-04T18:32:26.234Z,4.45
2023-01-04T18:34:58.451Z,2.95
2023-01-04T18:37:30.496Z,2.95
2023-01-04T18:40:05.963Z,3.55
2023-01-04T18:42:38.355Z,3.98
2023-01-04T18:45:10.442Z,2.85
2023-01-04T18:47:42.555Z,3.67
2023-01-04T18:50:15.279Z,2.27
2023-01-04T18:52:47.202Z,3.58
2023-01-04T18:55:19.407Z,3.95
2023-01-04T18:57:51.398Z,3.08
2023-01-04T19:00:25.034Z,3.17
2023-01-04T19:02:58.496Z,4.92
2023-01-04T19:05:30.541Z,2.92
2023-01-04T19:08:02.884Z,3.50
2023-01-04T19:10:35.726Z,4.37
2023-01-04T19:13:18.984Z,3.98
2023-01-04T19:15:50.929Z,2.35
2023-01-04T19:18:22.940Z,5.17
2023-01-04T19:20:55.631Z,2.50
2023-01-04T19:23:27.821Z,3.58
2023-01-04T19:25:59.892Z,2.70
2023-01-04T19:28:32.003Z,3.10
2023-01-04T19:31:09.174Z,4.67
2023-01-04T19:33:41.682Z,3.58
2023-01-04T19:36:15.515Z,3.35
2023-01-04T19:38:47.425Z,4.72
2023-01-04T19:41:29.146Z,4.45
2023-01-04T19:43:56.881Z,4.17
2023-01-04T19:46:28.808Z,3.95
2023-01-04T19:49:00.832Z,2.58
2023-01-04T19:51:33.026Z,2.80
2023-01-04T19:54:04.957Z,2.83
2023-01-04T19:56:36.968Z,3.62
2023-01-04T19:59:09.171Z,3.92
2023-01-04T20:01:41.264Z,4.85
2023-01-04T20:04:14.124Z,2.60
2023-01-04T20:06:46.084Z,4.33
2023-01-04T20:09:19.707Z,1.85
2023-01-04T20:11:51.675Z,3.72
2023-01-04T20:14:23.676Z,3.92
2023-01-04T20:16:56.069Z,3.85
2023-01-04T20:19:28.028Z,3.40
2023-01-04T20:21:59.996Z,4.22
2023-01-04T20:24:31.787Z,2.80
2023-01-04T20:27:03.656Z,2.87
2023-01-04T20:29:35.704Z,3.05
2023-01-04T20:32:07.787Z,2.87
2023-01-04T20:34:39.711Z,0.68
2023-01-04T20:37:11.778Z,2.40
2023-01-04T20:39:43.888Z,2.52
2023-01-04T20:42:29.627Z,1.87
2023-01-04T20:45:01.557Z,2.22
2023-01-04T20:47:33.452Z,2.42
2023-01-04T20:50:05.610Z,2.12
2023-01-04T20:52:38.109Z,2.20
2023-01-04T20:55:15.507Z,2.30
2023-01-04T20:57:43.815Z,1.62
2023-01-04T21:00:16.404Z,1.95
2023-01-04T21:02:48.648Z,2.67
2023-01-04T21:05:20.709Z,1.62
2023-01-04T21:07:52.575Z,2.10
2023-01-04T21:10:24.890Z,1.40
2023-01-04T21:12:56.883Z,2.30
2023-01-04T21:15:29.020Z,1.47
2023-01-04T21:18:00.971Z,2.45
2023-01-04T21:20:33.050Z,2.30
2023-01-04T21:23:05.016Z,1.40
2023-01-04T21:25:41.063Z,1.98
2023-01-04T21:28:14.439Z,1.67
2023-01-04T21:30:47.593Z,1.40
2023-01-04T21:33:19.599Z,1.80
2023-01-04T21:35:51.502Z,2.30
2023-01-04T21:38:23.957Z,2.10
2023-01-04T21:40:55.842Z,2.27
2023-01-04T21:43:27.756Z,1.80
2023-01-04T21:46:01.229Z,2.65
2023-01-04T21:48:33.289Z,1.70
2023-01-04T21:51:06.858Z,1.47
2023-01-04T21:53:40.264Z,1.60
2023-01-04T21:56:15.074Z,1.85
2023-01-04T21:58:47.302Z,1.80
2023-01-04T22:01:22.453Z,1.55
2023-01-04T22:03:54.543Z,1.47
2023-01-04T22:06:26.678Z,0.50
2023-01-04T22:08:58.807Z,1.55
2023-01-04T22:11:30.978Z,1.20
2023-01-04T22:14:03.297Z,1.50
2023-01-04T22:16:35.418Z,1.10
2023-01-04T22:19:07.768Z,1.67
2023-01-04T22:21:40.253Z,0.57
2023-01-04T22:24:15.970Z,1.42
2023-01-04T22:26:49.477Z,1.85
2023-01-04T22:29:22.529Z,0.85
2023-01-04T22:31:54.625Z,0.78
2023-01-04T22:34:28.139Z,1.00
2023-01-04T22:37:00.172Z,1.00
2023-01-04T22:39:32.220Z,0.93
2023-01-04T22:42:04.241Z,0.68
2023-01-04T22:44:36.743Z,1.32
2023-01-04T22:47:08.641Z,1.00
2023-01-04T22:49:40.516Z,1.05
2023-01-04T22:52:12.781Z,1.20
2023-01-04T22:54:44.722Z,0.50
2023-01-04T22:57:16.698Z,0.60
2023-01-04T22:59:48.639Z,1.20
2023-01-04T23:02:20.523Z,0.70
2023-01-04T23:04:52.436Z,0.75
2023-01-04T23:07:24.534Z,0.40
2023-01-04T23:09:56.549Z,0.10
2023-01-04T23:12:28.568Z,0.72
2023-01-04T23:15:00.427Z,0.40
2023-01-04T23:17:33.253Z,0.65
2023-01-04T23:20:10.264Z,0.80
2023-01-04T23:25:10.485Z,0.60
2023-01-04T23:27:47.611Z,0.50
2023-01-04T23:30:19.503Z,0.70
2023-01-04T23:32:51.426Z,0.98
2023-01-04T23:35:23.646Z,0.55
2023-01-04T23:37:55.898Z,1.70
2023-01-04T23:40:27.821Z,0.80
2023-01-04T23:42:59.832Z,0.78
2023-01-04T23:45:31.778Z,1.32
2023-01-04T23:48:03.673Z,0.90
2023-01-04T23:50:35.613Z,0.62
2023-01-04T23:53:07.559Z,0.90
2023-01-04T23:55:39.635Z,0.72
2023-01-04T23:58:11.638Z,1.20
